sensor_id;sensor_type;location;lat;lon;timestamp;P1;durP1;ratioP1;P2;durP2;ratioP2
10458;SDS011;5277;48.722;8.736;2023-04-03T00:01:36;2.77;;;2.00;;
10458;SDS011;5277;48.722;8.736;2023-04-03T00:04:04;2.63;;;2.10;;
10458;SDS011;5277;48.722;8.736;2023-04-03T00:06:30;2.93;;;1.90;;
10458;SDS011;5277;48.722;8.736;2023-04-03T00:08:56;2.80;;;2.17;;
10458;SDS011;5277;48.722;8.736;2023-04-03T00:11:21;2.97;;;2.00;;
10458;SDS011;5277;48.722;8.736;2023-04-03T00:13:47;4.00;;;2.30;;
10458;SDS011;5277;48.722;8.736;2023-04-03T00:16:12;3.20;;;2.27;;
10458;SDS011;5277;48.722;8.736;2023-04-03T00:18:38;4.43;;;2.20;;
10458;SDS011;5277;48.722;8.736;2023-04-03T00:21:05;2.60;;;1.90;;
10458;SDS011;5277;48.722;8.736;2023-04-03T00:23:31;5.47;;;2.00;;
10458;SDS011;5277;48.722;8.736;2023-04-03T00:25:57;4.03;;;2.43;;
10458;SDS011;5277;48.722;8.736;2023-04-03T00:28:22;3.93;;;2.20;;
10458;SDS011;5277;48.722;8.736;2023-04-03T00:30:49;2.60;;;1.87;;
10458;SDS011;5277;48.722;8.736;2023-04-03T00:33:15;2.90;;;2.10;;
10458;SDS011;5277;48.722;8.736;2023-04-03T00:35:41;3.67;;;2.27;;
10458;SDS011;5277;48.722;8.736;2023-04-03T00:38:07;3.70;;;2.00;;
10458;SDS011;5277;48.722;8.736;2023-04-03T00:40:37;2.93;;;1.90;;
10458;SDS011;5277;48.722;8.736;2023-04-03T00:43:11;3.60;;;2.37;;
10458;SDS011;5277;48.722;8.736;2023-04-03T00:45:46;4.30;;;2.17;;
10458;SDS011;5277;48.722;8.736;2023-04-03T00:48:18;3.30;;;2.17;;
10458;SDS011;5277;48.722;8.736;2023-04-03T00:50:47;4.13;;;2.37;;
10458;SDS011;5277;48.722;8.736;2023-04-03T00:53:17;6.53;;;2.50;;
10458;SDS011;5277;48.722;8.736;2023-04-03T00:55:46;3.13;;;2.50;;
10458;SDS011;5277;48.722;8.736;2023-04-03T00:58:14;5.17;;;2.50;;
10458;SDS011;5277;48.722;8.736;2023-04-03T01:00:42;2.90;;;2.47;;
10458;SDS011;5277;48.722;8.736;2023-04-03T01:03:11;3.47;;;2.57;;
10458;SDS011;5277;48.722;8.736;2023-04-03T01:05:37;4.90;;;2.90;;
10458;SDS011;5277;48.722;8.736;2023-04-03T01:08:03;3.90;;;2.60;;
10458;SDS011;5277;48.722;8.736;2023-04-03T01:10:28;3.83;;;2.43;;
10458;SDS011;5277;48.722;8.736;2023-04-03T01:12:54;3.67;;;2.40;;
10458;SDS011;5277;48.722;8.736;2023-04-03T01:15:24;3.83;;;2.90;;
10458;SDS011;5277;48.722;8.736;2023-04-03T01:17:53;4.03;;;2.57;;
10458;SDS011;5277;48.722;8.736;2023-04-03T01:25:46;3.57;;;2.80;;
10458;SDS011;5277;48.722;8.736;2023-04-03T01:28:17;3.53;;;2.53;;
10458;SDS011;5277;48.722;8.736;2023-04-03T01:33:47;5.50;;;2.70;;
10458;SDS011;5277;48.722;8.736;2023-04-03T01:36:14;8.27;;;2.60;;
10458;SDS011;5277;48.722;8.736;2023-04-03T01:38:42;4.87;;;2.50;;
10458;SDS011;5277;48.722;8.736;2023-04-03T01:41:07;3.83;;;2.67;;
10458;SDS011;5277;48.722;8.736;2023-04-03T01:43:33;3.37;;;2.83;;
10458;SDS011;5277;48.722;8.736;2023-04-03T01:45:59;2.83;;;2.30;;
10458;SDS011;5277;48.722;8.736;2023-04-03T01:48:24;5.70;;;2.63;;
10458;SDS011;5277;48.722;8.736;2023-04-03T01:50:50;4.70;;;2.70;;
10458;SDS011;5277;48.722;8.736;2023-04-03T01:53:15;4.50;;;2.53;;
10458;SDS011;5277;48.722;8.736;2023-04-03T01:55:41;2.93;;;2.40;;
10458;SDS011;5277;48.722;8.736;2023-04-03T01:58:07;4.13;;;2.60;;
10458;SDS011;5277;48.722;8.736;2023-04-03T02:00:32;3.80;;;2.93;;
10458;SDS011;5277;48.722;8.736;2023-04-03T02:02:58;4.70;;;2.60;;
10458;SDS011;5277;48.722;8.736;2023-04-03T02:05:24;6.67;;;2.73;;
10458;SDS011;5277;48.722;8.736;2023-04-03T02:07:49;3.80;;;2.53;;
10458;SDS011;5277;48.722;8.736;2023-04-03T02:10:15;3.47;;;2.47;;
10458;SDS011;5277;48.722;8.736;2023-04-03T02:12:41;4.33;;;2.77;;
10458;SDS011;5277;48.722;8.736;2023-04-03T02:15:06;3.83;;;2.53;;
10458;SDS011;5277;48.722;8.736;2023-04-03T02:17:32;3.43;;;2.60;;
10458;SDS011;5277;48.722;8.736;2023-04-03T02:19:59;6.20;;;2.37;;
10458;SDS011;5277;48.722;8.736;2023-04-03T02:22:25;4.70;;;2.50;;
10458;SDS011;5277;48.722;8.736;2023-04-03T02:24:50;3.17;;;2.47;;
10458;SDS011;5277;48.722;8.736;2023-04-03T02:27:16;5.97;;;2.50;;
10458;SDS011;5277;48.722;8.736;2023-04-03T02:29:42;4.43;;;2.77;;
10458;SDS011;5277;48.722;8.736;2023-04-03T02:32:08;3.13;;;2.20;;
10458;SDS011;5277;48.722;8.736;2023-04-03T02:34:33;4.37;;;2.17;;
10458;SDS011;5277;48.722;8.736;2023-04-03T02:36:59;4.03;;;2.50;;
10458;SDS011;5277;48.722;8.736;2023-04-03T02:39:24;2.73;;;2.23;;
10458;SDS011;5277;48.722;8.736;2023-04-03T02:41:51;3.17;;;2.50;;
10458;SDS011;5277;48.722;8.736;2023-04-03T02:44:16;4.83;;;3.10;;
10458;SDS011;5277;48.722;8.736;2023-04-03T02:46:42;3.53;;;2.63;;
10458;SDS011;5277;48.722;8.736;2023-04-03T02:49:08;4.07;;;2.70;;
10458;SDS011;5277;48.722;8.736;2023-04-03T02:51:33;5.20;;;2.37;;
10458;SDS011;5277;48.722;8.736;2023-04-03T02:53:59;3.73;;;2.50;;
10458;SDS011;5277;48.722;8.736;2023-04-03T02:56:25;3.87;;;2.50;;
10458;SDS011;5277;48.722;8.736;2023-04-03T02:58:51;3.60;;;2.43;;
10458;SDS011;5277;48.722;8.736;2023-04-03T03:01:17;5.83;;;2.50;;
10458;SDS011;5277;48.722;8.736;2023-04-03T03:03:43;2.80;;;2.30;;
10458;SDS011;5277;48.722;8.736;2023-04-03T03:06:10;4.87;;;2.40;;
10458;SDS011;5277;48.722;8.736;2023-04-03T03:08:37;2.87;;;2.20;;
10458;SDS011;5277;48.722;8.736;2023-04-03T03:11:03;6.00;;;2.57;;
10458;SDS011;5277;48.722;8.736;2023-04-03T03:13:29;3.17;;;2.30;;
10458;SDS011;5277;48.722;8.736;2023-04-03T03:15:55;4.90;;;2.40;;
10458;SDS011;5277;48.722;8.736;2023-04-03T03:18:21;4.00;;;2.40;;
10458;SDS011;5277;48.722;8.736;2023-04-03T03:20:50;3.80;;;2.27;;
10458;SDS011;5277;48.722;8.736;2023-04-03T03:23:17;3.73;;;2.40;;
10458;SDS011;5277;48.722;8.736;2023-04-03T03:25:46;4.07;;;2.43;;
10458;SDS011;5277;48.722;8.736;2023-04-03T03:28:12;6.90;;;2.53;;
10458;SDS011;5277;48.722;8.736;2023-04-03T03:30:38;4.97;;;3.30;;
10458;SDS011;5277;48.722;8.736;2023-04-03T03:33:03;4.53;;;2.63;;
10458;SDS011;5277;48.722;8.736;2023-04-03T03:35:29;4.67;;;2.43;;
10458;SDS011;5277;48.722;8.736;2023-04-03T03:37:55;4.10;;;2.53;;
10458;SDS011;5277;48.722;8.736;2023-04-03T03:40:20;4.67;;;2.50;;
10458;SDS011;5277;48.722;8.736;2023-04-03T03:42:46;3.63;;;2.40;;
10458;SDS011;5277;48.722;8.736;2023-04-03T03:45:11;4.70;;;2.43;;
10458;SDS011;5277;48.722;8.736;2023-04-03T03:47:37;3.77;;;2.43;;
10458;SDS011;5277;48.722;8.736;2023-04-03T03:50:03;6.07;;;2.70;;
10458;SDS011;5277;48.722;8.736;2023-04-03T03:52:29;3.13;;;2.50;;
10458;SDS011;5277;48.722;8.736;2023-04-03T03:54:55;7.30;;;2.97;;
10458;SDS011;5277;48.722;8.736;2023-04-03T03:57:21;7.80;;;2.50;;
10458;SDS011;5277;48.722;8.736;2023-04-03T03:59:46;5.47;;;2.37;;
10458;SDS011;5277;48.722;8.736;2023-04-03T04:02:13;7.27;;;2.57;;
10458;SDS011;5277;48.722;8.736;2023-04-03T04:04:39;5.40;;;2.40;;
10458;SDS011;5277;48.722;8.736;2023-04-03T04:07:05;4.53;;;2.80;;
10458;SDS011;5277;48.722;8.736;2023-04-03T04:09:30;4.80;;;2.50;;
10458;SDS011;5277;48.722;8.736;2023-04-03T04:11:56;4.77;;;2.60;;
10458;SDS011;5277;48.722;8.736;2023-04-03T04:14:22;3.20;;;2.37;;
10458;SDS011;5277;48.722;8.736;2023-04-03T04:16:47;4.60;;;2.30;;
10458;SDS011;5277;48.722;8.736;2023-04-03T04:19:13;6.43;;;2.40;;
10458;SDS011;5277;48.722;8.736;2023-04-03T04:21:39;5.33;;;2.60;;
10458;SDS011;5277;48.722;8.736;2023-04-03T04:24:06;6.40;;;2.87;;
10458;SDS011;5277;48.722;8.736;2023-04-03T04:26:37;3.77;;;2.50;;
10458;SDS011;5277;48.722;8.736;2023-04-03T04:29:02;6.97;;;2.87;;
10458;SDS011;5277;48.722;8.736;2023-04-03T04:31:28;6.17;;;2.90;;
10458;SDS011;5277;48.722;8.736;2023-04-03T04:33:54;4.83;;;2.57;;
10458;SDS011;5277;48.722;8.736;2023-04-03T04:36:19;3.83;;;2.80;;
10458;SDS011;5277;48.722;8.736;2023-04-03T04:38:45;4.33;;;2.83;;
10458;SDS011;5277;48.722;8.736;2023-04-03T04:41:11;4.00;;;2.63;;
10458;SDS011;5277;48.722;8.736;2023-04-03T04:43:36;4.30;;;2.87;;
10458;SDS011;5277;48.722;8.736;2023-04-03T04:48:29;3.73;;;2.33;;
10458;SDS011;5277;48.722;8.736;2023-04-03T04:50:55;4.23;;;2.57;;
10458;SDS011;5277;48.722;8.736;2023-04-03T04:53:20;3.73;;;2.63;;
10458;SDS011;5277;48.722;8.736;2023-04-03T04:55:46;7.33;;;2.63;;
10458;SDS011;5277;48.722;8.736;2023-04-03T04:58:12;5.10;;;2.63;;
10458;SDS011;5277;48.722;8.736;2023-04-03T05:00:37;3.90;;;2.43;;
10458;SDS011;5277;48.722;8.736;2023-04-03T05:03:03;5.70;;;2.50;;
10458;SDS011;5277;48.722;8.736;2023-04-03T05:05:28;3.27;;;2.37;;
10458;SDS011;5277;48.722;8.736;2023-04-03T05:07:54;3.20;;;2.40;;
10458;SDS011;5277;48.722;8.736;2023-04-03T05:10:19;3.43;;;2.23;;
10458;SDS011;5277;48.722;8.736;2023-04-03T05:12:45;2.40;;;1.97;;
10458;SDS011;5277;48.722;8.736;2023-04-03T05:15:11;4.20;;;2.40;;
10458;SDS011;5277;48.722;8.736;2023-04-03T05:17:36;4.47;;;2.20;;
10458;SDS011;5277;48.722;8.736;2023-04-03T05:20:03;4.27;;;2.20;;
10458;SDS011;5277;48.722;8.736;2023-04-03T05:22:29;4.43;;;2.53;;
10458;SDS011;5277;48.722;8.736;2023-04-03T05:24:55;4.10;;;2.27;;
10458;SDS011;5277;48.722;8.736;2023-04-03T05:27:21;5.27;;;2.90;;
10458;SDS011;5277;48.722;8.736;2023-04-03T05:29:48;4.13;;;2.60;;
10458;SDS011;5277;48.722;8.736;2023-04-03T05:32:14;2.80;;;2.43;;
10458;SDS011;5277;48.722;8.736;2023-04-03T05:34:40;5.67;;;2.93;;
10458;SDS011;5277;48.722;8.736;2023-04-03T05:37:05;4.17;;;2.37;;
10458;SDS011;5277;48.722;8.736;2023-04-03T05:39:31;3.47;;;2.37;;
10458;SDS011;5277;48.722;8.736;2023-04-03T05:41:57;2.30;;;2.03;;
10458;SDS011;5277;48.722;8.736;2023-04-03T05:44:22;2.87;;;2.20;;
10458;SDS011;5277;48.722;8.736;2023-04-03T05:46:48;4.10;;;2.47;;
10458;SDS011;5277;48.722;8.736;2023-04-03T05:49:13;4.53;;;2.57;;
10458;SDS011;5277;48.722;8.736;2023-04-03T05:51:39;3.90;;;2.70;;
10458;SDS011;5277;48.722;8.736;2023-04-03T05:54:09;4.47;;;2.70;;
10458;SDS011;5277;48.722;8.736;2023-04-03T05:56:40;3.00;;;2.33;;
10458;SDS011;5277;48.722;8.736;2023-04-03T05:59:06;3.03;;;2.23;;
10458;SDS011;5277;48.722;8.736;2023-04-03T06:01:32;5.93;;;2.60;;
10458;SDS011;5277;48.722;8.736;2023-04-03T06:03:59;3.53;;;2.50;;
10458;SDS011;5277;48.722;8.736;2023-04-03T06:06:24;2.73;;;2.40;;
10458;SDS011;5277;48.722;8.736;2023-04-03T06:08:50;4.20;;;2.40;;
10458;SDS011;5277;48.722;8.736;2023-04-03T06:11:16;4.97;;;2.50;;
10458;SDS011;5277;48.722;8.736;2023-04-03T06:13:42;5.93;;;2.40;;
10458;SDS011;5277;48.722;8.736;2023-04-03T06:16:09;3.07;;;2.40;;
10458;SDS011;5277;48.722;8.736;2023-04-03T06:18:39;3.87;;;2.33;;
10458;SDS011;5277;48.722;8.736;2023-04-03T06:21:04;3.53;;;2.43;;
10458;SDS011;5277;48.722;8.736;2023-04-03T06:23:32;3.47;;;2.27;;
10458;SDS011;5277;48.722;8.736;2023-04-03T06:25:58;3.30;;;2.30;;
10458;SDS011;5277;48.722;8.736;2023-04-03T06:28:23;2.30;;;1.97;;
10458;SDS011;5277;48.722;8.736;2023-04-03T06:30:49;3.20;;;2.20;;
10458;SDS011;5277;48.722;8.736;2023-04-03T06:33:14;5.73;;;3.03;;
10458;SDS011;5277;48.722;8.736;2023-04-03T06:35:40;4.63;;;2.03;;
10458;SDS011;5277;48.722;8.736;2023-04-03T06:38:06;3.03;;;2.10;;
10458;SDS011;5277;48.722;8.736;2023-04-03T06:40:34;3.80;;;2.03;;
10458;SDS011;5277;48.722;8.736;2023-04-03T06:43:00;3.07;;;2.33;;
10458;SDS011;5277;48.722;8.736;2023-04-03T06:45:26;2.60;;;1.80;;
10458;SDS011;5277;48.722;8.736;2023-04-03T06:47:52;2.63;;;1.83;;
10458;SDS011;5277;48.722;8.736;2023-04-03T06:50:18;3.67;;;2.27;;
10458;SDS011;5277;48.722;8.736;2023-04-03T06:52:44;3.33;;;1.80;;
10458;SDS011;5277;48.722;8.736;2023-04-03T06:55:09;3.03;;;1.90;;
10458;SDS011;5277;48.722;8.736;2023-04-03T06:57:35;3.37;;;1.93;;
10458;SDS011;5277;48.722;8.736;2023-04-03T07:00:04;3.10;;;1.97;;
10458;SDS011;5277;48.722;8.736;2023-04-03T07:02:32;2.97;;;1.80;;
10458;SDS011;5277;48.722;8.736;2023-04-03T07:04:58;3.60;;;1.60;;
10458;SDS011;5277;48.722;8.736;2023-04-03T07:07:23;3.90;;;1.50;;
10458;SDS011;5277;48.722;8.736;2023-04-03T07:09:49;2.30;;;1.50;;
10458;SDS011;5277;48.722;8.736;2023-04-03T07:12:14;3.83;;;1.80;;
10458;SDS011;5277;48.722;8.736;2023-04-03T07:14:40;2.67;;;1.90;;
10458;SDS011;5277;48.722;8.736;2023-04-03T07:17:06;2.87;;;1.80;;
10458;SDS011;5277;48.722;8.736;2023-04-03T07:19:32;2.10;;;1.80;;
10458;SDS011;5277;48.722;8.736;2023-04-03T07:21:57;2.87;;;1.80;;
10458;SDS011;5277;48.722;8.736;2023-04-03T07:24:23;3.47;;;1.93;;
10458;SDS011;5277;48.722;8.736;2023-04-03T07:26:49;2.97;;;2.00;;
10458;SDS011;5277;48.722;8.736;2023-04-03T07:29:18;5.13;;;2.23;;
10458;SDS011;5277;48.722;8.736;2023-04-03T07:31:45;2.73;;;2.00;;
10458;SDS011;5277;48.722;8.736;2023-04-03T07:34:10;3.13;;;1.93;;
10458;SDS011;5277;48.722;8.736;2023-04-03T07:36:36;2.77;;;1.80;;
10458;SDS011;5277;48.722;8.736;2023-04-03T07:39:02;2.73;;;1.83;;
10458;SDS011;5277;48.722;8.736;2023-04-03T07:41:28;5.40;;;1.90;;
10458;SDS011;5277;48.722;8.736;2023-04-03T07:43:55;3.73;;;1.80;;
10458;SDS011;5277;48.722;8.736;2023-04-03T07:46:21;2.73;;;1.87;;
10458;SDS011;5277;48.722;8.736;2023-04-03T07:48:47;6.70;;;2.30;;
10458;SDS011;5277;48.722;8.736;2023-04-03T07:51:13;4.03;;;1.70;;
10458;SDS011;5277;48.722;8.736;2023-04-03T07:53:38;4.47;;;1.90;;
10458;SDS011;5277;48.722;8.736;2023-04-03T07:56:04;4.10;;;2.10;;
10458;SDS011;5277;48.722;8.736;2023-04-03T07:58:30;2.60;;;1.90;;
10458;SDS011;5277;48.722;8.736;2023-04-03T08:00:56;3.23;;;2.23;;
10458;SDS011;5277;48.722;8.736;2023-04-03T08:03:22;2.90;;;2.03;;
10458;SDS011;5277;48.722;8.736;2023-04-03T08:05:48;2.83;;;1.80;;
10458;SDS011;5277;48.722;8.736;2023-04-03T08:08:16;3.63;;;2.20;;
10458;SDS011;5277;48.722;8.736;2023-04-03T08:10:52;5.10;;;2.30;;
10458;SDS011;5277;48.722;8.736;2023-04-03T08:13:19;3.40;;;2.00;;
10458;SDS011;5277;48.722;8.736;2023-04-03T08:15:45;4.70;;;2.40;;
10458;SDS011;5277;48.722;8.736;2023-04-03T08:18:11;2.90;;;1.87;;
10458;SDS011;5277;48.722;8.736;2023-04-03T08:20:38;3.27;;;1.87;;
10458;SDS011;5277;48.722;8.736;2023-04-03T08:23:05;5.80;;;1.93;;
10458;SDS011;5277;48.722;8.736;2023-04-03T08:25:32;5.43;;;2.23;;
10458;SDS011;5277;48.722;8.736;2023-04-03T08:27:58;4.77;;;2.10;;
10458;SDS011;5277;48.722;8.736;2023-04-03T08:30:28;4.73;;;2.00;;
10458;SDS011;5277;48.722;8.736;2023-04-03T08:32:53;4.40;;;2.30;;
10458;SDS011;5277;48.722;8.736;2023-04-03T08:35:19;3.60;;;2.20;;
10458;SDS011;5277;48.722;8.736;2023-04-03T08:37:45;3.07;;;2.00;;
10458;SDS011;5277;48.722;8.736;2023-04-03T08:40:15;7.03;;;2.10;;
10458;SDS011;5277;48.722;8.736;2023-04-03T08:42:51;4.77;;;2.10;;
10458;SDS011;5277;48.722;8.736;2023-04-03T08:48:17;6.07;;;2.30;;
10458;SDS011;5277;48.722;8.736;2023-04-03T08:50:47;2.87;;;2.30;;
10458;SDS011;5277;48.722;8.736;2023-04-03T08:53:26;4.80;;;2.20;;
10458;SDS011;5277;48.722;8.736;2023-04-03T08:55:57;3.00;;;1.97;;
10458;SDS011;5277;48.722;8.736;2023-04-03T08:58:26;3.13;;;2.33;;
10458;SDS011;5277;48.722;8.736;2023-04-03T09:03:29;3.70;;;2.33;;
10458;SDS011;5277;48.722;8.736;2023-04-03T09:08:37;4.30;;;2.20;;
10458;SDS011;5277;48.722;8.736;2023-04-03T09:11:21;6.65;;;2.35;;
10458;SDS011;5277;48.722;8.736;2023-04-03T09:14:07;3.40;;;2.27;;
10458;SDS011;5277;48.722;8.736;2023-04-03T09:16:54;3.63;;;2.05;;
10458;SDS011;5277;48.722;8.736;2023-04-03T09:21:48;4.30;;;2.05;;
10458;SDS011;5277;48.722;8.736;2023-04-03T09:24:15;4.78;;;1.90;;
10458;SDS011;5277;48.722;8.736;2023-04-03T09:26:43;3.70;;;2.00;;
10458;SDS011;5277;48.722;8.736;2023-04-03T09:29:10;4.25;;;2.20;;
10458;SDS011;5277;48.722;8.736;2023-04-03T09:31:43;6.37;;;2.20;;
10458;SDS011;5277;48.722;8.736;2023-04-03T09:34:17;3.60;;;2.20;;
10458;SDS011;5277;48.722;8.736;2023-04-03T09:36:45;4.63;;;2.10;;
10458;SDS011;5277;48.722;8.736;2023-04-03T09:39:15;5.35;;;2.10;;
10458;SDS011;5277;48.722;8.736;2023-04-03T09:42:05;3.03;;;1.90;;
10458;SDS011;5277;48.722;8.736;2023-04-03T09:47:01;4.30;;;1.92;;
10458;SDS011;5277;48.722;8.736;2023-04-03T09:52:38;3.58;;;1.83;;
10458;SDS011;5277;48.722;8.736;2023-04-03T09:55:10;3.90;;;2.00;;
10458;SDS011;5277;48.722;8.736;2023-04-03T09:57:43;3.08;;;1.90;;
10458;SDS011;5277;48.722;8.736;2023-04-03T10:03:00;5.05;;;2.17;;
10458;SDS011;5277;48.722;8.736;2023-04-03T10:05:43;4.45;;;2.05;;
10458;SDS011;5277;48.722;8.736;2023-04-03T10:08:11;4.25;;;1.90;;
10458;SDS011;5277;48.722;8.736;2023-04-03T10:10:41;4.57;;;1.73;;
10458;SDS011;5277;48.722;8.736;2023-04-03T10:13:17;3.80;;;1.70;;
10458;SDS011;5277;48.722;8.736;2023-04-03T10:16:07;4.47;;;1.90;;
10458;SDS011;5277;48.722;8.736;2023-04-03T10:21:20;2.30;;;1.60;;
10458;SDS011;5277;48.722;8.736;2023-04-03T10:24:02;3.13;;;1.80;;
10458;SDS011;5277;48.722;8.736;2023-04-03T10:26:39;5.13;;;1.65;;
10458;SDS011;5277;48.722;8.736;2023-04-03T10:34:21;2.53;;;1.77;;
10458;SDS011;5277;48.722;8.736;2023-04-03T10:42:17;4.65;;;1.80;;
10458;SDS011;5277;48.722;8.736;2023-04-03T10:53:24;2.35;;;1.50;;
10458;SDS011;5277;48.722;8.736;2023-04-03T10:56:15;3.25;;;1.80;;
10458;SDS011;5277;48.722;8.736;2023-04-03T10:58:54;3.03;;;1.58;;
10458;SDS011;5277;48.722;8.736;2023-04-03T11:01:36;2.50;;;1.73;;
10458;SDS011;5277;48.722;8.736;2023-04-03T11:04:05;4.35;;;1.70;;
10458;SDS011;5277;48.722;8.736;2023-04-03T11:06:34;3.95;;;1.70;;
10458;SDS011;5277;48.722;8.736;2023-04-03T11:09:15;2.87;;;1.60;;
10458;SDS011;5277;48.722;8.736;2023-04-03T11:12:00;3.83;;;1.60;;
10458;SDS011;5277;48.722;8.736;2023-04-03T11:14:35;2.53;;;1.55;;
10458;SDS011;5277;48.722;8.736;2023-04-03T11:19:42;5.90;;;1.70;;
10458;SDS011;5277;48.722;8.736;2023-04-03T11:22:25;3.60;;;1.73;;
10458;SDS011;5277;48.722;8.736;2023-04-03T11:27:56;2.80;;;1.48;;
10458;SDS011;5277;48.722;8.736;2023-04-03T11:30:25;3.35;;;1.40;;
10458;SDS011;5277;48.722;8.736;2023-04-03T11:36:00;2.47;;;1.40;;
10458;SDS011;5277;48.722;8.736;2023-04-03T11:38:38;2.83;;;1.50;;
10458;SDS011;5277;48.722;8.736;2023-04-03T11:41:08;3.47;;;1.67;;
10458;SDS011;5277;48.722;8.736;2023-04-03T11:43:40;2.25;;;1.52;;
10458;SDS011;5277;48.722;8.736;2023-04-03T11:46:07;2.03;;;1.50;;
10458;SDS011;5277;48.722;8.736;2023-04-03T11:53:38;2.63;;;1.50;;
10458;SDS011;5277;48.722;8.736;2023-04-03T12:01:46;2.00;;;1.30;;
10458;SDS011;5277;48.722;8.736;2023-04-03T12:04:25;5.43;;;1.57;;
10458;SDS011;5277;48.722;8.736;2023-04-03T12:07:11;1.90;;;1.30;;
10458;SDS011;5277;48.722;8.736;2023-04-03T12:15:17;2.85;;;1.40;;
10458;SDS011;5277;48.722;8.736;2023-04-03T12:17:49;3.65;;;1.25;;
10458;SDS011;5277;48.722;8.736;2023-04-03T12:23:27;2.40;;;1.45;;
10458;SDS011;5277;48.722;8.736;2023-04-03T12:26:19;3.17;;;1.55;;
10458;SDS011;5277;48.722;8.736;2023-04-03T12:28:55;4.18;;;2.05;;
10458;SDS011;5277;48.722;8.736;2023-04-03T12:31:22;2.83;;;1.30;;
10458;SDS011;5277;48.722;8.736;2023-04-03T12:34:04;3.10;;;1.38;;
10458;SDS011;5277;48.722;8.736;2023-04-03T12:36:42;4.53;;;1.45;;
10458;SDS011;5277;48.722;8.736;2023-04-03T12:42:23;2.88;;;1.35;;
10458;SDS011;5277;48.722;8.736;2023-04-03T12:45:17;3.10;;;1.60;;
10458;SDS011;5277;48.722;8.736;2023-04-03T12:47:45;3.00;;;1.63;;
10458;SDS011;5277;48.722;8.736;2023-04-03T12:50:21;2.10;;;1.47;;
10458;SDS011;5277;48.722;8.736;2023-04-03T12:55:30;5.95;;;2.38;;
10458;SDS011;5277;48.722;8.736;2023-04-03T12:57:55;3.08;;;1.60;;
10458;SDS011;5277;48.722;8.736;2023-04-03T13:02:58;4.82;;;1.30;;
10458;SDS011;5277;48.722;8.736;2023-04-03T13:05:25;4.70;;;1.73;;
10458;SDS011;5277;48.722;8.736;2023-04-03T13:07:57;3.20;;;1.20;;
10458;SDS011;5277;48.722;8.736;2023-04-03T13:10:25;2.20;;;1.50;;
10458;SDS011;5277;48.722;8.736;2023-04-03T13:12:52;2.10;;;1.30;;
10458;SDS011;5277;48.722;8.736;2023-04-03T13:15:21;2.55;;;1.45;;
10458;SDS011;5277;48.722;8.736;2023-04-03T13:17:52;2.38;;;1.30;;
10458;SDS011;5277;48.722;8.736;2023-04-03T13:25:26;2.85;;;1.65;;
10458;SDS011;5277;48.722;8.736;2023-04-03T13:27:55;2.33;;;1.50;;
10458;SDS011;5277;48.722;8.736;2023-04-03T13:30:25;2.35;;;1.50;;
10458;SDS011;5277;48.722;8.736;2023-04-03T13:32:52;4.80;;;1.92;;
10458;SDS011;5277;48.722;8.736;2023-04-03T13:35:26;2.92;;;1.40;;
10458;SDS011;5277;48.722;8.736;2023-04-03T13:38:27;2.88;;;1.55;;
10458;SDS011;5277;48.722;8.736;2023-04-03T13:40:54;4.72;;;1.50;;
10458;SDS011;5277;48.722;8.736;2023-04-03T13:43:25;3.50;;;1.73;;
10458;SDS011;5277;48.722;8.736;2023-04-03T13:46:38;2.13;;;1.23;;
10458;SDS011;5277;48.722;8.736;2023-04-03T13:48:43;4.22;;;1.20;;
10458;SDS011;5277;48.722;8.736;2023-04-03T13:53:44;2.45;;;1.40;;
10458;SDS011;5277;48.722;8.736;2023-04-03T14:01:25;1.83;;;1.30;;
10458;SDS011;5277;48.722;8.736;2023-04-03T14:03:59;1.80;;;1.25;;
10458;SDS011;5277;48.722;8.736;2023-04-03T14:06:34;2.95;;;1.63;;
10458;SDS011;5277;48.722;8.736;2023-04-03T14:09:01;2.40;;;1.23;;
10458;SDS011;5277;48.722;8.736;2023-04-03T14:11:28;2.78;;;1.52;;
10458;SDS011;5277;48.722;8.736;2023-04-03T14:13:55;3.72;;;1.60;;
10458;SDS011;5277;48.722;8.736;2023-04-03T14:16:26;3.08;;;1.50;;
10458;SDS011;5277;48.722;8.736;2023-04-03T14:18:55;2.47;;;1.38;;
10458;SDS011;5277;48.722;8.736;2023-04-03T14:21:21;2.42;;;1.30;;
10458;SDS011;5277;48.722;8.736;2023-04-03T14:23:48;3.80;;;1.83;;
10458;SDS011;5277;48.722;8.736;2023-04-03T14:26:15;5.53;;;1.42;;
10458;SDS011;5277;48.722;8.736;2023-04-03T14:28:50;3.63;;;1.67;;
10458;SDS011;5277;48.722;8.736;2023-04-03T14:31:17;2.72;;;1.42;;
10458;SDS011;5277;48.722;8.736;2023-04-03T14:33:44;3.38;;;1.63;;
10458;SDS011;5277;48.722;8.736;2023-04-03T14:36:13;2.75;;;1.50;;
10458;SDS011;5277;48.722;8.736;2023-04-03T14:38:44;3.03;;;1.50;;
10458;SDS011;5277;48.722;8.736;2023-04-03T14:41:12;2.28;;;1.48;;
10458;SDS011;5277;48.722;8.736;2023-04-03T14:43:38;6.82;;;1.50;;
10458;SDS011;5277;48.722;8.736;2023-04-03T14:46:04;2.38;;;1.40;;
10458;SDS011;5277;48.722;8.736;2023-04-03T14:48:30;3.28;;;1.60;;
10458;SDS011;5277;48.722;8.736;2023-04-03T14:50:56;3.20;;;1.60;;
10458;SDS011;5277;48.722;8.736;2023-04-03T14:53:22;2.13;;;1.33;;
10458;SDS011;5277;48.722;8.736;2023-04-03T14:55:49;3.75;;;1.35;;
10458;SDS011;5277;48.722;8.736;2023-04-03T14:58:17;2.42;;;1.60;;
10458;SDS011;5277;48.722;8.736;2023-04-03T15:00:44;4.85;;;1.80;;
10458;SDS011;5277;48.722;8.736;2023-04-03T15:03:14;2.38;;;1.45;;
10458;SDS011;5277;48.722;8.736;2023-04-03T15:05:45;2.50;;;1.50;;
10458;SDS011;5277;48.722;8.736;2023-04-03T15:08:21;2.22;;;1.35;;
10458;SDS011;5277;48.722;8.736;2023-04-03T15:10:50;1.92;;;1.30;;
10458;SDS011;5277;48.722;8.736;2023-04-03T15:13:20;2.78;;;1.50;;
10458;SDS011;5277;48.722;8.736;2023-04-03T15:15:46;6.47;;;1.60;;
10458;SDS011;5277;48.722;8.736;2023-04-03T15:18:20;3.17;;;1.63;;
10458;SDS011;5277;48.722;8.736;2023-04-03T15:20:51;4.53;;;1.90;;
10458;SDS011;5277;48.722;8.736;2023-04-03T15:23:18;3.33;;;1.75;;
10458;SDS011;5277;48.722;8.736;2023-04-03T15:25:44;3.05;;;1.70;;
10458;SDS011;5277;48.722;8.736;2023-04-03T15:28:19;4.43;;;1.97;;
10458;SDS011;5277;48.722;8.736;2023-04-03T15:30:55;3.03;;;1.60;;
10458;SDS011;5277;48.722;8.736;2023-04-03T15:33:20;3.00;;;1.75;;
10458;SDS011;5277;48.722;8.736;2023-04-03T15:35:46;2.20;;;1.48;;
10458;SDS011;5277;48.722;8.736;2023-04-03T15:38:11;3.78;;;1.60;;
10458;SDS011;5277;48.722;8.736;2023-04-03T15:40:37;3.83;;;1.63;;
10458;SDS011;5277;48.722;8.736;2023-04-03T15:43:03;3.03;;;1.50;;
10458;SDS011;5277;48.722;8.736;2023-04-03T15:45:30;2.47;;;1.37;;
10458;SDS011;5277;48.722;8.736;2023-04-03T15:47:56;2.77;;;1.47;;
10458;SDS011;5277;48.722;8.736;2023-04-03T15:50:22;3.03;;;1.50;;
10458;SDS011;5277;48.722;8.736;2023-04-03T15:52:49;3.20;;;1.50;;
10458;SDS011;5277;48.722;8.736;2023-04-03T15:55:19;3.10;;;1.53;;
10458;SDS011;5277;48.722;8.736;2023-04-03T15:57:52;2.13;;;1.60;;
10458;SDS011;5277;48.722;8.736;2023-04-03T16:00:19;3.73;;;1.53;;
10458;SDS011;5277;48.722;8.736;2023-04-03T16:02:45;3.73;;;2.13;;
10458;SDS011;5277;48.722;8.736;2023-04-03T16:05:12;2.87;;;1.70;;
10458;SDS011;5277;48.722;8.736;2023-04-03T16:07:40;2.53;;;1.40;;
10458;SDS011;5277;48.722;8.736;2023-04-03T16:10:06;2.53;;;1.57;;
10458;SDS011;5277;48.722;8.736;2023-04-03T16:12:33;2.50;;;1.50;;
10458;SDS011;5277;48.722;8.736;2023-04-03T16:14:59;3.40;;;1.70;;
10458;SDS011;5277;48.722;8.736;2023-04-03T16:17:25;5.17;;;2.00;;
10458;SDS011;5277;48.722;8.736;2023-04-03T16:19:52;6.00;;;1.50;;
10458;SDS011;5277;48.722;8.736;2023-04-03T16:22:19;3.67;;;1.67;;
10458;SDS011;5277;48.722;8.736;2023-04-03T16:24:44;4.27;;;1.70;;
10458;SDS011;5277;48.722;8.736;2023-04-03T16:27:10;2.40;;;1.27;;
10458;SDS011;5277;48.722;8.736;2023-04-03T16:29:36;4.57;;;1.50;;
10458;SDS011;5277;48.722;8.736;2023-04-03T16:32:01;2.80;;;1.60;;
10458;SDS011;5277;48.722;8.736;2023-04-03T16:34:27;10.37;;;1.90;;
10458;SDS011;5277;48.722;8.736;2023-04-03T16:36:55;2.60;;;1.40;;
10458;SDS011;5277;48.722;8.736;2023-04-03T16:39:20;2.97;;;1.53;;
10458;SDS011;5277;48.722;8.736;2023-04-03T16:41:46;1.80;;;1.30;;
10458;SDS011;5277;48.722;8.736;2023-04-03T16:44:12;2.77;;;1.40;;
10458;SDS011;5277;48.722;8.736;2023-04-03T16:46:39;4.30;;;1.67;;
10458;SDS011;5277;48.722;8.736;2023-04-03T16:49:05;5.97;;;1.73;;